createdAt,value
2023-06-17T00:01:10.193Z,2.80
2023-06-17T00:03:37.252Z,3.00
2023-06-17T00:06:04.407Z,2.80
2023-06-17T00:08:31.444Z,3.03
2023-06-17T00:10:59.024Z,2.80
2023-06-17T00:13:26.449Z,2.80
2023-06-17T00:15:57.727Z,2.73
2023-06-17T00:18:25.556Z,2.80
2023-06-17T00:20:54.298Z,2.70
2023-06-17T00:23:21.916Z,2.70
2023-06-17T00:25:52.000Z,2.60
2023-06-17T00:28:19.027Z,2.73
2023-06-17T00:30:47.793Z,2.80
2023-06-17T00:33:16.212Z,2.83
2023-06-17T00:35:43.659Z,2.63
2023-06-17T00:38:11.209Z,2.90
2023-06-17T00:40:38.363Z,2.90
2023-06-17T00:43:05.856Z,3.03
2023-06-17T00:45:39.784Z,3.00
2023-06-17T00:48:10.094Z,2.90
2023-06-17T00:50:38.424Z,3.00
2023-06-17T00:53:06.504Z,3.00
2023-06-17T00:55:35.092Z,3.17
2023-06-17T00:58:03.274Z,3.20
2023-06-17T01:00:31.217Z,3.10
2023-06-17T01:02:59.809Z,3.33
2023-06-17T01:05:28.176Z,3.10
2023-06-17T01:08:27.279Z,2.97
2023-06-17T01:11:15.439Z,3.10
2023-06-17T01:13:51.914Z,2.97
2023-06-17T01:16:20.527Z,2.87
2023-06-17T01:18:50.594Z,2.87
2023-06-17T01:21:19.378Z,2.90
2023-06-17T01:23:53.907Z,2.80
2023-06-17T01:26:22.717Z,2.90
2023-06-17T01:28:54.245Z,2.80
2023-06-17T01:31:22.424Z,2.93
2023-06-17T01:33:53.012Z,2.77
2023-06-17T01:36:30.537Z,2.90
2023-06-17T01:39:04.427Z,2.90
2023-06-17T01:41:40.792Z,2.90
2023-06-17T01:44:11.349Z,2.90
2023-06-17T01:46:40.020Z,2.97
2023-06-17T01:49:07.801Z,2.83
2023-06-17T01:51:34.882Z,2.87
2023-06-17T01:54:02.707Z,2.80
2023-06-17T01:56:30.450Z,3.10
2023-06-17T01:58:58.583Z,3.00
2023-06-17T02:01:27.130Z,3.07
2023-06-17T02:03:54.668Z,3.07
2023-06-17T02:06:21.823Z,3.03
2023-06-17T02:08:49.880Z,3.00
2023-06-17T02:11:17.415Z,3.00
2023-06-17T02:13:44.484Z,3.00
2023-06-17T02:16:11.983Z,3.20
2023-06-17T02:18:39.051Z,2.97
2023-06-17T02:21:06.228Z,3.20
2023-06-17T02:23:33.265Z,3.13
2023-06-17T02:26:00.289Z,3.10
2023-06-17T02:28:27.470Z,3.10
2023-06-17T02:30:54.577Z,3.20
2023-06-17T02:33:23.929Z,3.13
2023-06-17T02:35:51.508Z,3.20
2023-06-17T02:38:18.566Z,3.20
2023-06-17T02:40:45.879Z,3.10
2023-06-17T02:43:12.927Z,3.03
2023-06-17T02:45:40.457Z,3.10
2023-06-17T02:48:07.954Z,3.20
2023-06-17T02:50:35.839Z,3.10
2023-06-17T02:53:05.750Z,3.03
2023-06-17T02:55:32.938Z,3.10
2023-06-17T02:58:06.885Z,3.10
2023-06-17T03:00:40.451Z,3.20
2023-06-17T03:03:10.532Z,3.20
2023-06-17T03:05:38.709Z,3.13
2023-06-17T03:08:07.697Z,3.17
2023-06-17T03:10:35.261Z,3.10
2023-06-17T03:13:11.089Z,3.27
2023-06-17T03:15:42.379Z,3.30
2023-06-17T03:18:10.981Z,3.07
2023-06-17T03:20:39.737Z,3.20
2023-06-17T03:23:07.712Z,3.17
2023-06-17T03:25:35.338Z,3.23
2023-06-17T03:28:03.800Z,3.20
2023-06-17T03:30:31.735Z,3.20
2023-06-17T03:32:59.598Z,3.03
2023-06-17T03:35:27.332Z,3.10
2023-06-17T03:37:55.252Z,3.13
2023-06-17T03:40:22.557Z,3.10
2023-06-17T03:42:50.249Z,3.00
2023-06-17T03:45:18.195Z,3.00
2023-06-17T03:47:47.493Z,3.07
2023-06-17T03:50:14.983Z,3.10
2023-06-17T03:52:42.609Z,3.10
2023-06-17T03:55:10.470Z,3.20
2023-06-17T03:57:38.310Z,3.10
2023-06-17T04:00:08.316Z,3.07
2023-06-17T04:02:46.187Z,3.10
2023-06-17T04:05:21.407Z,3.00
2023-06-17T04:07:50.023Z,3.07
2023-06-17T04:10:17.410Z,3.10
2023-06-17T04:12:45.024Z,3.00
2023-06-17T04:15:13.099Z,3.07
2023-06-17T04:17:40.637Z,3.07
2023-06-17T04:20:11.769Z,3.07
2023-06-17T04:22:44.874Z,3.03
2023-06-17T04:25:16.522Z,3.17
2023-06-17T04:27:46.144Z,3.20
2023-06-17T04:30:16.163Z,3.30
2023-06-17T04:32:44.644Z,3.10
2023-06-17T04:35:13.900Z,3.17
2023-06-17T04:37:45.613Z,3.10
2023-06-17T04:40:13.789Z,3.00
2023-06-17T04:42:45.791Z,3.23
2023-06-17T04:45:13.444Z,3.10
2023-06-17T04:47:41.045Z,3.20
2023-06-17T04:50:08.719Z,3.20
2023-06-17T04:52:36.016Z,3.03
2023-06-17T04:55:06.585Z,2.97
2023-06-17T04:57:34.745Z,2.87
2023-06-17T05:00:01.932Z,2.90
2023-06-17T05:02:30.394Z,2.70
2023-06-17T05:04:57.904Z,2.60
2023-06-17T05:07:25.905Z,2.70
2023-06-17T05:09:53.100Z,2.67
2023-06-17T05:12:20.691Z,2.70
2023-06-17T05:14:47.991Z,2.97
2023-06-17T05:17:15.148Z,3.27
2023-06-17T05:19:42.243Z,3.00
2023-06-17T05:22:09.373Z,3.93
2023-06-17T05:24:36.579Z,3.63
2023-06-17T05:27:04.398Z,3.27
2023-06-17T05:29:31.602Z,3.07
2023-06-17T05:31:59.086Z,2.90
2023-06-17T05:34:26.270Z,2.93
2023-06-17T05:36:54.102Z,2.90
2023-06-17T05:39:22.828Z,2.80
2023-06-17T05:41:49.919Z,3.03
2023-06-17T05:44:19.004Z,2.90
2023-06-17T05:46:47.335Z,3.03
2023-06-17T05:49:15.865Z,3.10
2023-06-17T05:51:43.880Z,3.13
2023-06-17T05:54:11.064Z,2.97
2023-06-17T05:56:38.250Z,2.83
2023-06-17T05:59:05.885Z,3.13
2023-06-17T06:01:36.210Z,3.03
2023-06-17T06:04:03.685Z,3.00
2023-06-17T06:06:33.838Z,2.80
2023-06-17T06:09:02.392Z,2.60
2023-06-17T06:11:29.983Z,2.60
2023-06-17T06:13:58.161Z,2.43
2023-06-17T06:16:25.732Z,2.40
2023-06-17T06:18:52.787Z,2.47
2023-06-17T06:21:19.822Z,2.70
2023-06-17T06:23:47.118Z,2.77
2023-06-17T06:26:15.416Z,2.60
2023-06-17T06:28:42.451Z,2.80
2023-06-17T06:31:10.049Z,2.77
2023-06-17T06:33:38.055Z,2.73
2023-06-17T06:36:08.918Z,2.67
2023-06-17T06:38:36.867Z,2.60
2023-06-17T06:41:04.035Z,2.90
2023-06-17T06:43:34.765Z,3.13
2023-06-17T06:46:05.012Z,3.63
2023-06-17T06:48:33.152Z,4.20
2023-06-17T06:51:02.435Z,3.83
2023-06-17T06:53:31.121Z,2.77
2023-06-17T06:55:59.114Z,2.73
2023-06-17T06:58:28.061Z,3.37
2023-06-17T07:00:56.872Z,3.67
2023-06-17T07:03:24.052Z,3.50
2023-06-17T07:05:51.662Z,3.80
2023-06-17T07:08:19.493Z,4.60
2023-06-17T07:10:48.565Z,5.53
2023-06-17T07:13:18.244Z,5.13
2023-06-17T07:15:47.872Z,4.40
2023-06-17T07:18:16.114Z,4.40
2023-06-17T07:20:43.665Z,3.50
2023-06-17T07:23:11.278Z,3.70
2023-06-17T07:25:38.345Z,3.77
2023-06-17T07:28:06.457Z,4.00
2023-06-17T07:30:35.363Z,4.30
2023-06-17T07:33:02.544Z,4.30
2023-06-17T07:35:30.265Z,4.40
2023-06-17T07:37:58.526Z,4.10
2023-06-17T07:40:25.984Z,3.50
2023-06-17T07:42:53.084Z,3.70
2023-06-17T07:45:20.714Z,3.10
2023-06-17T07:47:49.369Z,3.10
2023-06-17T07:50:16.577Z,4.30
2023-06-17T07:52:43.717Z,5.03
2023-06-17T07:55:11.962Z,4.90
2023-06-17T07:57:39.279Z,3.83
2023-06-17T08:03:37.161Z,3.43
2023-06-17T08:06:04.594Z,2.80
2023-06-17T08:08:31.629Z,3.70
2023-06-17T08:11:01.483Z,2.20
2023-06-17T08:13:29.332Z,1.60
2023-06-17T08:16:00.325Z,1.80
2023-06-17T08:18:28.706Z,2.70
2023-06-17T08:20:56.168Z,4.03
2023-06-17T08:23:23.458Z,10.47
2023-06-17T08:25:50.785Z,10.27
2023-06-17T08:28:20.876Z,14.47
2023-06-17T08:30:50.328Z,13.97
2023-06-17T08:33:21.093Z,11.73
2023-06-17T08:35:48.957Z,7.30
2023-06-17T08:38:16.887Z,6.23
2023-06-17T08:40:46.783Z,7.20
2023-06-17T08:43:20.481Z,8.10
2023-06-17T08:45:52.665Z,6.07
2023-06-17T08:48:20.387Z,4.77
2023-06-17T08:50:50.080Z,2.90
2023-06-17T08:53:18.053Z,1.83
2023-06-17T08:55:45.741Z,1.80
2023-06-17T08:58:13.037Z,1.70
2023-06-17T09:00:40.950Z,1.40
2023-06-17T09:03:10.195Z,1.53
2023-06-17T09:05:37.421Z,1.63
2023-06-17T09:08:05.729Z,2.40
2023-06-17T09:10:44.753Z,1.90
2023-06-17T09:13:12.338Z,1.67
2023-06-17T09:15:44.645Z,1.80
2023-06-17T09:18:11.950Z,1.70
2023-06-17T09:20:39.012Z,1.70
2023-06-17T09:23:06.292Z,1.87
2023-06-17T09:25:36.392Z,2.60
2023-06-17T09:28:15.984Z,2.03
2023-06-17T09:30:44.299Z,1.50
2023-06-17T09:33:25.033Z,1.70
2023-06-17T09:36:09.791Z,1.40
2023-06-17T09:38:40.743Z,1.53
2023-06-17T09:41:15.628Z,1.83
2023-06-17T09:43:42.892Z,1.97
2023-06-17T09:46:12.196Z,2.10
2023-06-17T09:48:41.463Z,2.83
2023-06-17T09:51:13.452Z,4.07
2023-06-17T09:53:42.306Z,3.33
2023-06-17T09:56:11.847Z,4.60
2023-06-17T09:58:43.705Z,7.97
2023-06-17T10:01:13.249Z,8.93
2023-06-17T10:03:41.437Z,9.00
2023-06-17T10:06:19.399Z,8.57
2023-06-17T10:08:51.897Z,6.27
2023-06-17T10:11:21.435Z,3.00
2023-06-17T10:14:01.733Z,3.03
2023-06-17T10:16:35.579Z,3.07
2023-06-17T10:19:07.383Z,3.40
2023-06-17T10:21:44.675Z,2.90
2023-06-17T10:24:14.193Z,2.83
2023-06-17T10:26:41.371Z,3.13
2023-06-17T10:29:11.338Z,3.80
2023-06-17T10:31:41.497Z,7.03
2023-06-17T10:34:22.781Z,7.60
2023-06-17T10:37:01.923Z,6.03
2023-06-17T10:39:30.045Z,3.80
2023-06-17T10:42:01.566Z,3.50
2023-06-17T10:44:33.311Z,3.07
2023-06-17T10:47:08.177Z,4.20
2023-06-17T10:49:43.718Z,5.30
2023-06-17T10:52:15.152Z,6.30
2023-06-17T10:54:55.329Z,10.07
2023-06-17T10:57:37.767Z,7.77
2023-06-17T11:00:12.916Z,9.10
2023-06-17T11:02:40.969Z,6.57
2023-06-17T11:05:10.772Z,6.17
2023-06-17T11:07:38.683Z,6.40
2023-06-17T11:10:06.845Z,6.10
2023-06-17T11:12:35.774Z,7.30
2023-06-17T11:15:05.395Z,9.47
2023-06-17T11:17:32.904Z,13.87
2023-06-17T11:20:00.000Z,12.87
2023-06-17T11:22:28.029Z,8.87
2023-06-17T11:24:58.902Z,10.07
2023-06-17T11:27:26.532Z,9.53
2023-06-17T11:29:53.683Z,7.50
2023-06-17T11:32:22.237Z,8.67
2023-06-17T11:34:52.753Z,7.00
2023-06-17T11:37:22.097Z,4.13
2023-06-17T11:39:49.844Z,4.40
2023-06-17T11:42:17.288Z,5.50
2023-06-17T11:44:44.464Z,5.07
2023-06-17T11:47:12.040Z,5.80
2023-06-17T11:49:45.081Z,6.40
2023-06-17T11:52:12.958Z,6.20
2023-06-17T11:54:50.515Z,9.70
2023-06-17T11:57:24.679Z,13.83
2023-06-17T11:59:53.223Z,10.27
2023-06-17T12:02:20.928Z,7.60
2023-06-17T12:04:49.095Z,11.00
2023-06-17T12:07:16.701Z,16.70
2023-06-17T12:09:55.063Z,6.63
2023-06-17T12:12:33.510Z,6.60
2023-06-17T12:15:15.555Z,5.20
2023-06-17T12:17:51.953Z,5.77
2023-06-17T12:20:22.953Z,5.77
2023-06-17T12:22:53.977Z,5.77
2023-06-17T12:25:21.844Z,8.67
2023-06-17T12:27:51.181Z,8.73
2023-06-17T12:30:19.600Z,9.87
2023-06-17T12:32:46.943Z,5.30
2023-06-17T12:35:15.672Z,7.93
2023-06-17T12:37:44.890Z,10.73
2023-06-17T12:40:12.667Z,10.50
2023-06-17T12:42:40.603Z,8.73
2023-06-17T12:45:09.415Z,7.20
2023-06-17T12:47:37.917Z,5.63
2023-06-17T12:50:09.751Z,6.00
2023-06-17T12:52:37.610Z,4.87
2023-06-17T12:55:06.176Z,4.10
2023-06-17T12:57:34.026Z,3.53
2023-06-17T13:00:01.653Z,3.50
2023-06-17T13:02:32.228Z,3.90
2023-06-17T13:05:01.157Z,4.30
2023-06-17T13:07:29.131Z,4.33
2023-06-17T13:09:58.151Z,3.70
2023-06-17T13:12:25.790Z,2.90
2023-06-17T13:14:52.926Z,2.57
2023-06-17T13:17:20.069Z,3.30
2023-06-17T13:19:47.675Z,3.40
2023-06-17T13:22:15.259Z,3.30
2023-06-17T13:24:42.891Z,3.50
2023-06-17T13:27:12.182Z,3.83
2023-06-17T13:29:39.422Z,4.20
2023-06-17T13:32:07.426Z,5.53
2023-06-17T13:34:34.614Z,5.93
2023-06-17T13:37:01.682Z,5.50
2023-06-17T13:39:28.687Z,6.23
2023-06-17T13:41:56.536Z,5.63
2023-06-17T13:44:23.622Z,5.10
2023-06-17T13:46:51.205Z,5.37
2023-06-17T13:49:18.729Z,3.30
2023-06-17T13:51:46.090Z,2.67
2023-06-17T13:54:13.157Z,2.10
2023-06-17T13:56:40.132Z,2.13
2023-06-17T13:59:07.876Z,2.33
2023-06-17T14:01:35.309Z,2.80
2023-06-17T14:04:03.026Z,2.57
2023-06-17T14:06:32.596Z,2.83
2023-06-17T14:09:03.560Z,3.27
2023-06-17T14:11:31.092Z,3.37
2023-06-17T14:13:58.535Z,4.33
2023-06-17T14:16:26.321Z,4.80
2023-06-17T14:18:53.779Z,5.30
2023-06-17T14:21:37.712Z,4.90
2023-06-17T14:24:11.304Z,3.43
2023-06-17T14:26:41.630Z,2.30
2023-06-17T14:29:10.569Z,1.90
2023-06-17T14:31:38.403Z,2.07
2023-06-17T14:34:05.911Z,2.60
2023-06-17T14:36:32.979Z,2.20
2023-06-17T14:39:02.227Z,2.47
2023-06-17T14:41:32.005Z,6.97
2023-06-17T14:44:00.723Z,3.70
2023-06-17T14:46:27.919Z,3.60
2023-06-17T14:48:54.972Z,3.10
2023-06-17T14:51:22.500Z,2.60
2023-06-17T14:53:53.702Z,2.60
2023-06-17T14:56:35.591Z,2.23
2023-06-17T14:59:08.580Z,2.13
2023-06-17T15:01:40.865Z,2.40
2023-06-17T15:04:08.688Z,2.83
2023-06-17T15:06:36.408Z,3.10
2023-06-17T15:09:29.753Z,3.20
2023-06-17T15:12:05.089Z,3.00
2023-06-17T15:14:36.378Z,2.77
2023-06-17T15:17:05.009Z,2.53
2023-06-17T15:19:32.477Z,2.13
2023-06-17T15:21:59.788Z,2.40
2023-06-17T15:24:27.360Z,2.27
2023-06-17T15:26:54.829Z,2.27
2023-06-17T15:29:22.269Z,2.17
2023-06-17T15:31:49.798Z,2.20
2023-06-17T15:34:17.391Z,2.00
2023-06-17T15:36:44.445Z,2.20
2023-06-17T15:39:28.641Z,2.10
2023-06-17T15:41:56.249Z,2.20
2023-06-17T15:44:23.687Z,2.13
2023-06-17T15:46:51.748Z,2.17
2023-06-17T15:49:19.571Z,2.27
2023-06-17T15:51:46.688Z,2.37
2023-06-17T15:54:14.397Z,2.23
2023-06-17T15:56:47.366Z,2.17
2023-06-17T15:59:14.846Z,2.27
2023-06-17T16:01:42.358Z,2.80
2023-06-17T16:04:37.697Z,3.30
2023-06-17T16:07:13.054Z,2.37
2023-06-17T16:09:49.796Z,2.70
2023-06-17T16:12:18.679Z,2.30
2023-06-17T16:14:47.123Z,2.40
2023-06-17T16:17:14.863Z,2.27
2023-06-17T16:19:42.457Z,2.50
2023-06-17T16:22:11.517Z,2.30
2023-06-17T16:24:41.533Z,2.30
2023-06-17T16:27:09.986Z,2.40
2023-06-17T16:29:37.535Z,2.37
2023-06-17T16:32:05.323Z,2.47
2023-06-17T16:34:32.853Z,2.60
2023-06-17T16:37:01.476Z,2.60
2023-06-17T16:39:29.270Z,2.60
2023-06-17T16:41:56.866Z,2.77
2023-06-17T16:44:24.770Z,2.43
2023-06-17T16:46:52.286Z,2.60
2023-06-17T16:49:19.993Z,2.27
2023-06-17T16:51:47.835Z,2.30
2023-06-17T16:54:14.923Z,2.13
2023-06-17T16:56:42.572Z,2.50
2023-06-17T16:59:10.005Z,2.20
2023-06-17T17:01:37.294Z,2.20
2023-06-17T17:04:12.596Z,2.70
2023-06-17T17:06:41.202Z,2.20
2023-06-17T17:09:09.327Z,2.40
2023-06-17T17:11:37.208Z,2.57
2023-06-17T17:14:05.356Z,2.90
2023-06-17T17:16:32.840Z,2.80
2023-06-17T17:19:00.405Z,3.00
2023-06-17T17:21:27.601Z,2.90
2023-06-17T17:23:55.140Z,3.13
2023-06-17T17:26:22.253Z,3.00
2023-06-17T17:28:49.720Z,2.70
2023-06-17T17:31:17.345Z,2.80
2023-06-17T17:33:45.057Z,2.73
2023-06-17T17:36:14.937Z,2.87
2023-06-17T17:38:42.674Z,3.27
2023-06-17T17:41:11.252Z,3.43
2023-06-17T17:43:39.441Z,4.00
2023-06-17T17:46:10.209Z,4.17
2023-06-17T17:48:37.801Z,4.90
2023-06-17T17:51:05.318Z,6.77
2023-06-17T17:53:32.902Z,7.50
2023-06-17T17:55:59.872Z,8.60
2023-06-17T17:58:26.976Z,8.50
2023-06-17T18:00:56.566Z,9.77
2023-06-17T18:03:24.298Z,10.00
2023-06-17T18:05:51.548Z,10.43
2023-06-17T18:08:19.052Z,9.83
2023-06-17T18:10:46.540Z,9.30
2023-06-17T18:13:14.128Z,9.50
2023-06-17T18:15:41.579Z,10.10
2023-06-17T18:18:08.836Z,9.07
2023-06-17T18:20:36.360Z,7.67
2023-06-17T18:23:04.437Z,7.40
2023-06-17T18:25:31.875Z,5.93
2023-06-17T18:27:58.924Z,5.43
2023-06-17T18:30:26.065Z,4.20
2023-06-17T18:32:53.609Z,3.90
2023-06-17T18:35:21.068Z,3.30
2023-06-17T18:37:48.147Z,3.00
2023-06-17T18:40:15.152Z,3.00
2023-06-17T18:42:42.184Z,2.63
2023-06-17T18:45:10.209Z,2.60
2023-06-17T18:47:37.804Z,2.93
2023-06-17T18:50:07.007Z,3.03
2023-06-17T18:52:34.061Z,3.10
2023-06-17T18:55:01.521Z,2.80
2023-06-17T18:57:28.886Z,3.00
2023-06-17T18:59:56.441Z,3.20
2023-06-17T19:02:26.280Z,3.10
2023-06-17T19:04:54.095Z,3.33
2023-06-17T19:07:24.573Z,3.67
2023-06-17T19:09:53.082Z,3.90
2023-06-17T19:12:20.675Z,3.93
2023-06-17T19:14:48.159Z,4.40
2023-06-17T19:17:15.259Z,5.00
2023-06-17T19:19:42.260Z,4.57
2023-06-17T19:22:09.347Z,3.93
2023-06-17T19:24:36.566Z,4.07
2023-06-17T19:27:04.543Z,3.30
2023-06-17T19:29:31.797Z,3.43
2023-06-17T19:31:59.268Z,3.10
2023-06-17T19:34:26.932Z,2.77
2023-06-17T19:36:55.209Z,2.60
2023-06-17T19:39:22.738Z,2.50
2023-06-17T19:41:50.273Z,2.80
2023-06-17T19:44:17.374Z,2.70
2023-06-17T19:46:45.386Z,2.70
2023-06-17T19:49:12.946Z,2.70
2023-06-17T19:51:40.159Z,2.60
2023-06-17T19:54:07.388Z,2.60
2023-06-17T19:56:34.503Z,2.67
2023-06-17T19:59:01.585Z,2.60
2023-06-17T20:01:29.139Z,2.90
2023-06-17T20:03:56.859Z,3.13
2023-06-17T20:06:26.453Z,3.37
2023-06-17T20:08:54.378Z,3.67
2023-06-17T20:11:25.556Z,3.70
2023-06-17T20:13:53.333Z,3.50
2023-06-17T20:16:20.561Z,3.60
2023-06-17T20:18:48.109Z,3.73
2023-06-17T20:21:16.964Z,3.90
2023-06-17T20:23:44.445Z,4.20
2023-06-17T20:26:12.383Z,4.47
2023-06-17T20:28:39.538Z,4.97
2023-06-17T20:31:06.730Z,5.77
2023-06-17T20:33:34.246Z,6.47
2023-06-17T20:36:01.459Z,6.13
2023-06-17T20:38:28.746Z,6.70
2023-06-17T20:40:55.867Z,5.97
2023-06-17T20:43:23.338Z,6.03
2023-06-17T20:45:51.988Z,5.40
2023-06-17T20:48:20.432Z,4.27
2023-06-17T20:50:47.701Z,3.87
2023-06-17T20:53:16.031Z,3.30
2023-06-17T20:55:43.742Z,3.23
2023-06-17T20:58:10.959Z,2.93
2023-06-17T21:00:38.117Z,2.90
2023-06-17T21:03:05.321Z,2.80
2023-06-17T21:05:32.335Z,2.90
2023-06-17T21:08:01.294Z,2.80
2023-06-17T21:10:32.532Z,2.87
2023-06-17T21:13:01.107Z,2.97
2023-06-17T21:15:28.116Z,3.10
2023-06-17T21:17:55.812Z,3.00
2023-06-17T21:20:24.118Z,3.20
2023-06-17T21:22:51.697Z,3.40
2023-06-17T21:25:19.448Z,3.27
2023-06-17T21:27:47.760Z,3.60
2023-06-17T21:30:15.102Z,3.23
2023-06-17T21:32:42.333Z,3.70
2023-06-17T21:35:10.083Z,3.80
2023-06-17T21:37:37.837Z,3.83
2023-06-17T21:40:06.157Z,3.97
2023-06-17T21:42:33.500Z,3.80
2023-06-17T21:45:00.742Z,3.60
2023-06-17T21:47:28.398Z,3.50
2023-06-17T21:49:55.460Z,4.00
2023-06-17T21:52:22.878Z,3.80
2023-06-17T21:54:50.562Z,3.77
2023-06-17T21:57:18.159Z,4.00
2023-06-17T21:59:45.703Z,4.20
2023-06-17T22:02:13.477Z,4.20
2023-06-17T22:04:40.890Z,4.10
2023-06-17T22:07:08.378Z,4.10
2023-06-17T22:09:35.453Z,3.93
2023-06-17T22:12:03.060Z,3.83
2023-06-17T22:14:31.089Z,4.17
2023-06-17T22:16:58.610Z,3.67
2023-06-17T22:19:26.061Z,4.10
2023-06-17T22:21:53.561Z,4.00
2023-06-17T22:24:21.198Z,3.60
2023-06-17T22:26:48.624Z,3.90
2023-06-17T22:29:15.701Z,3.60
2023-06-17T22:31:42.715Z,3.50
2023-06-17T22:34:09.788Z,3.23
2023-06-17T22:36:36.889Z,3.33
2023-06-17T22:39:03.987Z,3.07
2023-06-17T22:41:31.733Z,2.90
2023-06-17T22:43:59.196Z,3.07
2023-06-17T22:46:26.623Z,2.97
2023-06-17T22:48:54.118Z,2.87
2023-06-17T22:51:22.404Z,3.13
2023-06-17T22:53:49.936Z,2.93
2023-06-17T22:56:17.449Z,3.00
2023-06-17T22:58:46.104Z,2.93
2023-06-17T23:01:13.632Z,2.83
2023-06-17T23:03:41.305Z,2.80
2023-06-17T23:06:08.970Z,3.00
2023-06-17T23:08:36.398Z,2.83
2023-06-17T23:11:03.908Z,2.90
2023-06-17T23:13:31.529Z,2.93
2023-06-17T23:15:58.968Z,2.93
2023-06-17T23:18:26.006Z,3.17
2023-06-17T23:20:53.500Z,2.97
2023-06-17T23:23:21.895Z,3.00
2023-06-17T23:25:50.698Z,3.17
2023-06-17T23:28:18.982Z,3.13
2023-06-17T23:30:46.129Z,3.10
2023-06-17T23:33:14.896Z,3.10
2023-06-17T23:35:45.592Z,3.20
2023-06-17T23:38:13.337Z,3.30
2023-06-17T23:40:40.919Z,3.37
2023-06-17T23:43:07.960Z,3.30
2023-06-17T23:45:35.450Z,3.07
2023-06-17T23:48:02.820Z,3.10
2023-06-17T23:50:30.397Z,3.20
2023-06-17T23:52:57.837Z,3.33
2023-06-17T23:55:25.330Z,3.10
2023-06-17T23:57:52.850Z,3.10
